Time;durP1;ratioP1;P1;durP2;ratioP2;P2;SDS_P1;SDS_P2;PMS_P1;PMS_P2;Temp;Humidity;BMP_temperature;BMP_pressure;BME280_temperature;BME280_humidity;BME280_pressure;Samples;Min_cycle;Max_cycle;Signal;HPM_P1;HPM_P2
2022/03/26 00:00:08;;;;;;;82.23;51.10;;;;;;;11.35;57.01;102673.09;5020005;28;20651;-70
2022/03/26 00:02:34;;;;;;;79.17;51.23;;;;;;;10.54;59.25;102674.28;5019541;28;20397;-71
2022/03/26 00:04:59;;;;;;;89.13;53.63;;;;;;;10.11;60.67;102681.19;5019699;28;20465;-73
2022/03/26 00:07:24;;;;;;;93.97;57.73;;;;;;;10.08;61.64;102676.72;5019766;28;20258;-74
2022/03/26 00:09:50;;;;;;;101.50;57.83;;;;;;;10.32;60.48;102673.34;5019946;28;20178;-73
2022/03/26 00:12:15;;;;;;;98.40;56.50;;;;;;;9.95;61.93;102675.28;5019216;28;20171;-73
2022/03/26 00:14:40;;;;;;;94.07;54.10;;;;;;;10.09;61.69;102664.56;5019547;28;20167;-73
2022/03/26 00:17:06;;;;;;;97.10;55.13;;;;;;;9.95;62.19;102659.66;5019530;28;20490;-73
2022/03/26 00:19:31;;;;;;;103.83;56.17;;;;;;;9.66;63.13;102666.22;5019295;28;20603;-72
2022/03/26 00:21:57;;;;;;;102.97;55.33;;;;;;;9.22;63.81;102659.88;5019765;28;20163;-72
2022/03/26 00:24:22;;;;;;;117.93;59.10;;;;;;;9.25;64.58;102652.22;5019369;28;20456;-73
2022/03/26 00:26:48;;;;;;;104.73;59.67;;;;;;;9.09;65.58;102643.72;5019366;28;20229;-74
2022/03/26 00:29:13;;;;;;;97.63;55.13;;;;;;;9.06;65.75;102645.25;5019631;28;20497;-73
2022/03/26 00:31:39;;;;;;;112.63;59.40;;;;;;;9.12;65.92;102639.44;5018974;28;20442;-73
2022/03/26 00:34:05;;;;;;;119.00;60.87;;;;;;;9.54;64.74;102637.91;5018196;28;20302;-74
2022/03/26 00:36:31;;;;;;;113.87;58.73;;;;;;;9.24;65.29;102640.91;5019756;28;20269;-73
2022/03/26 00:38:56;;;;;;;116.47;59.57;;;;;;;9.11;65.64;102646.38;5019185;28;20425;-74
2022/03/26 00:41:23;;;;;;;114.40;58.07;;;;;;;9.04;66.62;102640.00;5018840;28;20171;-73
2022/03/26 00:43:48;;;;;;;115.63;62.07;;;;;;;9.13;66.51;102636.03;5018365;28;20185;-73
2022/03/26 00:46:14;;;;;;;119.90;62.20;;;;;;;9.24;65.72;102640.91;5018690;28;20676;-71
2022/03/26 00:48:40;;;;;;;116.67;58.90;;;;;;;8.92;66.56;102642.91;5018709;28;20171;-73
2022/03/26 00:51:05;;;;;;;110.03;61.20;;;;;;;9.31;65.71;102641.19;5024642;28;21078;-72
2022/03/26 00:53:30;;;;;;;112.20;56.83;;;;;;;9.10;65.71;102640.25;5038645;28;20232;-71
2022/03/26 00:55:56;;;;;;;115.40;61.53;;;;;;;9.00;66.38;102645.88;5038545;28;20166;-72
2022/03/26 00:58:21;;;;;;;112.43;60.97;;;;;;;9.08;65.91;102641.03;5024692;28;20175;-73
2022/03/26 01:00:46;;;;;;;117.70;62.83;;;;;;;9.43;64.70;102639.13;5018322;28;20274;-73
2022/03/26 01:03:12;;;;;;;120.53;62.37;;;;;;;9.01;65.62;102634.66;5018477;28;20182;-73
2022/03/26 01:05:38;;;;;;;111.90;61.30;;;;;;;8.96;65.78;102637.84;5018928;28;20619;-71
2022/03/26 01:08:04;;;;;;;114.77;60.13;;;;;;;8.48;67.42;102638.19;5018653;28;20171;-71
2022/03/26 01:10:30;;;;;;;114.57;59.50;;;;;;;8.77;66.25;102637.88;5018441;28;20460;-72
2022/03/26 01:12:55;;;;;;;121.80;63.00;;;;;;;8.80;66.31;102637.13;5018962;28;20267;-72
2022/03/26 01:15:22;;;;;;;115.57;60.70;;;;;;;8.50;67.51;102633.97;5018585;28;20214;-74
2022/03/26 01:17:47;;;;;;;110.37;54.70;;;;;;;8.39;66.95;102623.88;5018278;28;20195;-72
2022/03/26 01:20:13;;;;;;;111.37;58.70;;;;;;;8.59;66.97;102629.19;5018856;28;20468;-72
2022/03/26 01:22:38;;;;;;;112.57;60.10;;;;;;;8.54;66.55;102633.28;5018219;28;20178;-73
2022/03/26 01:25:05;;;;;;;114.23;58.60;;;;;;;8.42;67.04;102624.03;5018295;28;20207;-72
2022/03/26 01:27:30;;;;;;;112.97;59.17;;;;;;;8.46;67.46;102629.41;5018787;28;20175;-71
2022/03/26 01:29:55;;;;;;;118.87;59.33;;;;;;;8.25;66.92;102622.31;5018435;28;20464;-72
2022/03/26 01:32:21;;;;;;;129.73;60.30;;;;;;;8.41;67.61;102614.44;5017950;28;20229;-71
2022/03/26 01:34:46;;;;;;;110.20;56.67;;;;;;;8.27;67.05;102612.88;5018699;28;20191;-71
2022/03/26 01:37:12;;;;;;;109.00;57.07;;;;;;;8.40;67.74;102615.28;5018213;28;20186;-72
2022/03/26 01:39:37;;;;;;;109.57;57.70;;;;;;;8.40;67.13;102615.28;5018375;28;20217;-71
2022/03/26 01:42:06;;;;;;;112.13;60.23;;;;;;;8.48;66.96;102617.38;5018923;28;20504;-72
2022/03/26 01:44:32;;;;;;;111.50;57.77;;;;;;;8.41;67.30;102622.22;5017481;28;20534;-71
2022/03/26 01:46:59;;;;;;;113.20;56.70;;;;;;;8.37;67.77;102614.22;5018002;28;20465;-72
2022/03/26 01:49:25;;;;;;;111.00;59.07;;;;;;;8.48;67.21;102610.47;5018757;28;20171;-73
2022/03/26 01:51:50;;;;;;;97.13;53.37;;;;;;;8.22;67.23;102615.25;5030036;28;20798;-76
2022/03/26 01:54:16;;;;;;;107.60;55.97;;;;;;;8.05;68.14;102601.44;5037899;28;20173;-77
2022/03/26 01:56:42;;;;;;;101.57;55.23;;;;;;;8.14;67.94;102608.78;5037624;28;20186;-73
2022/03/26 01:59:08;;;;;;;111.00;56.87;;;;;;;8.34;67.49;102611.47;5017369;28;20799;-75
2022/03/26 02:01:34;;;;;;;101.73;54.30;;;;;;;8.62;66.35;102610.25;5017707;28;20438;-73
2022/03/26 02:04:04;;;;;;;114.27;58.03;;;;;;;8.62;66.58;102605.94;5018471;28;20216;-71
2022/03/26 02:06:33;;;;;;;94.47;54.60;;;;;;;8.64;66.46;102604.28;5018035;28;20432;-74
2022/03/26 02:09:17;;;;;;;96.23;54.00;;;;;;;8.72;66.08;102595.16;5017972;28;20674;-74
2022/03/26 02:11:44;;;;;;;109.73;56.20;;;;;;;8.39;66.37;102597.91;5017884;28;20482;-73
2022/03/26 02:14:11;;;;;;;121.33;55.60;;;;;;;7.97;67.83;102592.38;5017860;28;20685;-72
2022/03/26 02:16:38;;;;;;;99.87;55.37;;;;;;;8.23;67.23;102593.66;5017262;28;20420;-73
2022/03/26 02:19:05;;;;;;;110.67;56.07;;;;;;;8.29;67.34;102595.66;5017833;28;20421;-72
2022/03/26 02:21:31;;;;;;;101.47;53.33;;;;;;;8.21;67.34;102597.91;5018048;28;20758;-71
2022/03/26 02:23:57;;;;;;;102.97;54.20;;;;;;;8.21;67.19;102591.78;5017688;28;20424;-72
2022/03/26 02:26:26;;;;;;;116.03;55.50;;;;;;;8.43;66.17;102599.81;5018515;28;20690;-74
2022/03/26 02:28:54;;;;;;;108.13;55.93;;;;;;;8.59;65.67;102603.19;5022898;28;20174;-71
2022/03/26 02:31:20;;;;;;;103.17;57.57;;;;;;;8.65;65.18;102600.00;5018336;28;20455;-72
2022/03/26 02:33:46;;;;;;;98.20;52.93;;;;;;;8.57;65.75;102599.63;5018099;28;20882;-73
2022/03/26 02:36:12;;;;;;;102.93;53.53;;;;;;;8.80;64.93;102590.31;5018196;28;20181;-72
2022/03/26 02:38:38;;;;;;;97.67;52.90;;;;;;;8.67;65.42;102595.75;5019297;28;20501;-70
2022/03/26 02:41:06;;;;;;;100.43;53.90;;;;;;;8.71;65.39;102598.59;5021145;28;20174;-72
2022/03/26 02:43:32;;;;;;;104.10;53.77;;;;;;;8.50;65.28;102589.78;5021513;28;20602;-72
2022/03/26 02:45:58;;;;;;;109.23;53.20;;;;;;;7.97;66.94;102591.47;5021067;28;20477;-72
2022/03/26 02:48:23;;;;;;;103.73;55.33;;;;;;;8.25;66.81;102586.84;5021331;28;20179;-73
2022/03/26 02:50:48;;;;;;;100.43;52.80;;;;;;;8.29;66.87;102587.84;5024706;28;20418;-73
2022/03/26 02:53:14;;;;;;;111.10;55.00;;;;;;;8.30;66.14;102587.03;5040861;28;20178;-74
2022/03/26 02:55:39;;;;;;;101.77;54.60;;;;;;;8.07;66.84;102592.00;5032749;28;20443;-73
2022/03/26 02:58:07;;;;;;;108.47;55.17;;;;;;;8.37;66.03;102596.03;5021338;28;20254;-70
2022/03/26 03:00:33;;;;;;;55.47;32.80;;;;;;;13.36;63.13;102570.69;5020761;28;20198;-69
2022/03/26 03:02:58;;;;;;;91.23;52.90;;;;;;;10.86;57.31;102575.53;5021163;28;20671;-73
2022/03/26 03:05:23;;;;;;;85.47;49.03;;;;;;;9.64;61.08;102583.63;5021470;28;20545;-72
2022/03/26 03:07:48;;;;;;;91.40;52.37;;;;;;;9.34;62.11;102579.75;5021087;28;20453;-72
2022/03/26 03:10:15;;;;;;;91.90;50.40;;;;;;;8.87;64.01;102583.69;5020830;28;20181;-72
2022/03/26 03:12:50;;;;;;;96.87;50.37;;;;;;;8.29;65.22;102582.66;5021653;28;20183;-71
2022/03/26 03:15:19;;;;;;;94.60;50.57;;;;;;;8.25;65.88;102584.25;5020877;28;20440;-71
2022/03/26 03:17:45;;;;;;;97.10;49.67;;;;;;;8.25;66.23;102583.31;5020877;28;21775;-72
2022/03/26 03:20:11;;;;;;;92.43;50.33;;;;;;;8.22;66.89;102576.28;5036489;28;20509;-72
2022/03/26 03:22:37;;;;;;;90.73;51.57;;;;;;;7.91;67.55;102572.19;5020599;28;20890;-73
2022/03/26 03:25:03;;;;;;;98.50;52.87;;;;;;;8.09;67.17;102567.00;5021079;28;20540;-73
2022/03/26 03:27:29;;;;;;;99.60;52.13;;;;;;;8.12;67.37;102570.53;5020729;28;20171;-72
2022/03/26 03:29:54;;;;;;;95.20;53.93;;;;;;;7.84;68.15;102579.56;5020551;28;20741;-72
2022/03/26 03:32:20;;;;;;;99.17;55.60;;;;;;;8.20;66.62;102580.50;5020735;28;20171;-71
2022/03/26 03:34:45;;;;;;;94.90;54.03;;;;;;;8.19;66.75;102577.84;5020416;28;20552;-73
2022/03/26 03:37:10;;;;;;;100.67;52.30;;;;;;;7.92;67.16;102575.66;5019478;28;20409;-72
2022/03/26 03:39:36;;;;;;;95.80;51.20;;;;;;;8.26;66.77;102580.78;5020935;28;20171;-72
2022/03/26 03:42:02;;;;;;;98.37;54.40;;;;;;;7.86;67.27;102583.13;5019585;28;20179;-72
2022/03/26 03:44:27;;;;;;;107.10;54.27;;;;;;;8.39;66.64;102582.31;5020298;28;20518;-72
2022/03/26 03:46:53;;;;;;;108.67;56.53;;;;;;;8.16;66.86;102582.88;5020808;28;20175;-71
2022/03/26 03:49:19;;;;;;;104.10;53.90;;;;;;;8.16;67.55;102580.28;5019714;28;20195;-71
2022/03/26 03:51:44;;;;;;;106.20;53.13;;;;;;;8.20;66.46;102590.00;5019785;28;20183;-71
2022/03/26 03:54:10;;;;;;;100.90;52.17;;;;;;;8.09;67.29;102587.78;5020507;28;20865;-72
2022/03/26 03:56:35;;;;;;;96.57;51.37;;;;;;;7.79;67.72;102583.63;5020034;28;20190;-72
2022/03/26 03:59:00;;;;;;;95.57;53.37;;;;;;;7.81;68.34;102587.22;5019989;28;20206;-72
2022/03/26 04:01:26;;;;;;;103.10;51.60;;;;;;;7.81;68.42;102574.25;5020228;28;20186;-72
2022/03/26 04:03:51;;;;;;;97.10;51.20;;;;;;;7.63;68.69;102580.28;5020149;28;20235;-73
2022/03/26 04:06:17;;;;;;;96.27;51.07;;;;;;;7.55;68.68;102576.38;5019690;28;20207;-72
2022/03/26 04:08:42;;;;;;;102.00;54.20;;;;;;;7.65;68.49;102578.63;5019571;28;20175;-72
2022/03/26 04:11:07;;;;;;;93.23;51.83;;;;;;;7.80;67.95;102573.31;5019589;28;20504;-72
2022/03/26 04:13:32;;;;;;;107.80;52.77;;;;;;;7.88;68.29;102571.13;5019893;28;20182;-74
2022/03/26 04:15:58;;;;;;;93.90;50.87;;;;;;;7.91;67.71;102568.66;5020242;28;20175;-72
2022/03/26 04:18:23;;;;;;;97.33;53.70;;;;;;;7.72;68.30;102577.25;5019850;28;20308;-73
2022/03/26 04:20:50;;;;;;;96.97;51.50;;;;;;;7.61;68.89;102574.09;5019455;28;20220;-72
2022/03/26 04:23:15;;;;;;;100.53;53.70;;;;;;;7.61;68.67;102575.81;5020133;28;20179;-71
2022/03/26 04:25:40;;;;;;;108.70;52.20;;;;;;;7.61;69.16;102579.28;5019589;28;20555;-71
2022/03/26 04:28:06;;;;;;;106.17;56.43;;;;;;;7.83;68.65;102576.06;5019551;28;20266;-72
2022/03/26 04:30:31;;;;;;;98.17;51.50;;;;;;;7.79;68.75;102568.94;5019593;28;20171;-72
2022/03/26 04:32:56;;;;;;;105.33;53.47;;;;;;;7.60;69.57;102574.91;5019351;28;20223;-72
2022/03/26 04:35:22;;;;;;;100.93;53.70;;;;;;;7.48;69.95;102571.69;5019490;28;20179;-72
2022/03/26 04:37:47;;;;;;;100.37;51.60;;;;;;;7.51;69.90;102575.34;5019242;28;20197;-72
2022/03/26 04:40:14;;;;;;;101.10;53.63;;;;;;;7.50;69.63;102565.75;5019452;28;20182;-72
2022/03/26 04:42:41;;;;;;;107.53;55.50;;;;;;;7.58;69.32;102568.75;5019309;28;20206;-72
2022/03/26 04:45:07;;;;;;;105.07;53.93;;;;;;;7.17;71.12;102567.47;5019698;28;20718;-72
2022/03/26 04:47:33;;;;;;;107.83;54.90;;;;;;;6.87;71.86;102572.78;5019482;28;20469;-72
2022/03/26 04:49:58;;;;;;;105.43;53.50;;;;;;;7.08;71.79;102568.75;5019403;28;20681;-72
2022/03/26 04:52:24;;;;;;;114.77;54.93;;;;;;;7.00;72.47;102567.47;5019684;28;20175;-72
2022/03/26 04:54:49;;;;;;;109.83;59.13;;;;;;;7.41;70.95;102568.78;5019033;28;20254;-71
2022/03/26 04:57:17;;;;;;;110.27;59.13;;;;;;;7.43;70.19;102571.44;5019020;28;20181;-72
2022/03/26 04:59:42;;;;;;;109.27;54.67;;;;;;;7.08;71.72;102575.66;5018650;28;20171;-72
2022/03/26 05:02:07;;;;;;;110.27;56.30;;;;;;;6.72;72.47;102573.75;5018367;28;20488;-72
2022/03/26 05:04:33;;;;;;;112.83;56.83;;;;;;;7.05;72.43;102568.63;5019112;28;20234;-72
2022/03/26 05:06:59;;;;;;;124.50;59.07;;;;;;;7.21;71.74;102574.59;5019296;28;20384;-72
2022/03/26 05:09:24;;;;;;;119.63;59.70;;;;;;;7.07;72.22;102573.88;5018980;28;20171;-73
2022/03/26 05:11:49;;;;;;;121.40;59.50;;;;;;;7.07;72.45;102574.75;5018686;28;20537;-72
2022/03/26 05:14:16;;;;;;;106.13;58.37;;;;;;;7.23;71.64;102570.41;5019509;28;20249;-72
2022/03/26 05:16:42;;;;;;;109.67;57.23;;;;;;;7.25;71.81;102579.13;5018779;28;20178;-73
2022/03/26 05:19:07;;;;;;;117.63;59.20;;;;;;;7.58;70.41;102576.53;5018004;28;20483;-72
2022/03/26 05:21:32;;;;;;;120.43;60.60;;;;;;;7.48;71.00;102587.25;5019014;28;20175;-72
2022/03/26 05:23:58;;;;;;;131.20;62.10;;;;;;;7.23;71.03;102598.94;5018611;28;20175;-72
2022/03/26 05:26:23;;;;;;;124.73;59.60;;;;;;;7.54;70.53;102605.75;5021938;28;20230;-73
2022/03/26 05:28:50;;;;;;;129.80;61.37;;;;;;;7.65;70.56;102607.19;5023602;28;20559;-72
2022/03/26 05:31:16;;;;;;;120.47;60.83;;;;;;;8.30;68.66;102604.34;5018551;28;20171;-72
2022/03/26 05:33:41;;;;;;;132.17;61.83;;;;;;;8.16;68.81;102603.66;5018312;28;20469;-72
2022/03/26 05:36:07;;;;;;;114.27;60.37;;;;;;;8.26;68.34;102606.78;5018817;28;20567;-72
2022/03/26 05:38:33;;;;;;;115.67;62.07;;;;;;;8.24;68.51;102603.22;5018542;28;20178;-71
2022/03/26 05:40:58;;;;;;;121.20;62.43;;;;;;;8.25;68.23;102612.81;5018105;28;20183;-72
2022/03/26 05:43:24;;;;;;;121.30;62.03;;;;;;;8.18;68.32;102610.72;5018646;28;20162;-72
2022/03/26 05:45:51;;;;;;;122.03;60.03;;;;;;;8.28;67.61;102617.28;5018076;28;20202;-71
2022/03/26 05:48:16;;;;;;;108.80;58.30;;;;;;;8.47;67.47;102600.00;5017434;28;20472;-71
2022/03/26 05:50:41;;;;;;;119.93;60.60;;;;;;;8.53;67.69;102605.50;5017789;28;20406;-71
2022/03/26 05:53:07;;;;;;;115.83;59.30;;;;;;;8.09;68.10;102598.16;5018250;28;20175;-73
2022/03/26 05:55:33;;;;;;;109.93;60.20;;;;;;;8.19;68.86;102607.31;5018351;28;20171;-72
2022/03/26 05:57:59;;;;;;;119.87;59.60;;;;;;;7.93;69.70;102606.00;5018506;28;20266;-71
2022/03/26 06:00:24;;;;;;;118.37;63.17;;;;;;;8.55;68.60;102609.03;5017874;28;20186;-73
2022/03/26 06:02:50;;;;;;;115.10;61.80;;;;;;;8.15;68.34;102602.78;5017966;28;20421;-71
2022/03/26 06:05:16;;;;;;;122.70;61.67;;;;;;;8.76;68.24;102597.06;5018519;28;20506;-72
2022/03/26 06:07:41;;;;;;;114.07;58.23;;;;;;;8.86;67.77;102595.81;5017941;28;20440;-72
2022/03/26 06:10:07;;;;;;;113.13;61.27;;;;;;;9.41;66.82;102594.81;5018207;28;20496;-72
2022/03/26 06:12:35;;;;;;;104.27;56.90;;;;;;;10.78;62.40;102597.03;5018346;28;20167;-73
2022/03/26 06:15:00;;;;;;;107.67;58.17;;;;;;;11.80;58.67;102589.38;5021782;28;20417;-72
2022/03/26 06:17:25;;;;;;;99.50;58.40;;;;;;;11.78;57.63;102583.19;5021719;28;20409;-72
2022/03/26 06:19:51;;;;;;;92.13;55.77;;;;;;;12.11;57.86;102596.56;5022114;28;20209;-72
2022/03/26 06:22:16;;;;;;;93.23;54.67;;;;;;;13.12;54.65;102583.94;5021449;28;20207;-71
2022/03/26 06:24:42;;;;;;;85.90;55.93;;;;;;;13.33;53.33;102586.28;5021688;28;20471;-72
2022/03/26 06:27:07;;;;;;;84.87;55.37;;;;;;;14.38;51.24;102580.25;5022107;28;20202;-71
2022/03/26 06:29:33;;;;;;;82.40;54.10;;;;;;;12.88;53.83;102584.09;5021487;28;20175;-72
2022/03/26 06:32:01;;;;;;;82.30;53.03;;;;;;;13.69;52.78;102576.78;5019354;28;21539;-71
2022/03/26 06:34:26;;;;;;;81.37;55.93;;;;;;;13.32;54.23;102587.13;5008959;28;20429;-72
2022/03/26 06:36:51;;;;;;;85.87;57.60;;;;;;;14.02;51.63;102592.50;5002155;28;20393;-72
2022/03/26 06:39:17;;;;;;;79.53;56.00;;;;;;;14.66;50.50;102592.28;5036109;28;20167;-72
2022/03/26 06:41:44;;;;;;;89.27;57.07;;;;;;;14.11;51.35;102590.13;5021453;28;20171;-73
2022/03/26 06:44:09;;;;;;;84.10;56.63;;;;;;;14.39;50.58;102595.13;5021449;28;20170;-72
2022/03/26 06:46:35;;;;;;;87.93;57.93;;;;;;;13.39;53.33;102590.84;5022108;28;20430;-72
2022/03/26 06:49:01;;;;;;;89.40;59.03;;;;;;;14.32;50.86;102587.09;5020423;28;20162;-73
2022/03/26 06:51:27;;;;;;;82.10;54.17;;;;;;;14.24;52.07;102588.66;5021221;28;20738;-71
2022/03/26 06:53:52;;;;;;;81.50;57.10;;;;;;;15.56;48.56;102583.59;5021510;28;20448;-71
2022/03/26 06:56:17;;;;;;;78.13;55.67;;;;;;;15.10;48.93;102587.13;5021582;28;20253;-71
2022/03/26 06:58:44;;;;;;;79.30;56.97;;;;;;;15.45;48.06;102586.94;5021388;28;20181;-73
2022/03/26 07:01:10;;;;;;;85.10;58.20;;;;;;;15.58;47.46;102592.41;5016975;28;20199;-73
2022/03/26 07:03:35;;;;;;;78.07;57.73;;;;;;;15.78;46.69;102596.28;5011432;28;20536;-72
2022/03/26 07:06:00;;;;;;;85.80;58.13;;;;;;;16.09;46.14;102588.97;5001999;28;20231;-72
2022/03/26 07:08:26;;;;;;;79.93;57.50;;;;;;;16.15;45.87;102588.16;5024377;28;20171;-72
2022/03/26 07:10:52;;;;;;;86.60;57.17;;;;;;;16.46;44.92;102586.88;5020965;28;20485;-73
2022/03/26 07:13:17;;;;;;;84.37;57.20;;;;;;;16.00;46.44;102589.66;5021033;28;20203;-71
2022/03/26 07:15:43;;;;;;;74.47;55.43;;;;;;;16.26;45.79;102589.22;5021271;28;20244;-72
2022/03/26 07:18:08;;;;;;;69.00;52.30;;;;;;;16.58;45.40;102591.44;5020648;28;20171;-72
2022/03/26 07:20:34;;;;;;;70.70;55.17;;;;;;;16.85;44.47;102590.06;5023616;28;20175;-70
2022/03/26 07:23:00;;;;;;;63.80;50.33;;;;;;;17.50;43.40;102589.09;5020940;28;20209;-72
2022/03/26 07:25:25;;;;;;;61.70;50.40;;;;;;;17.43;43.60;102589.91;5020552;28;20863;-72
2022/03/26 07:27:50;;;;;;;50.73;44.27;;;;;;;17.41;42.92;102588.13;5019495;28;20191;-78
2022/03/26 07:30:16;;;;;;;29.23;25.70;;;;;;;21.31;41.24;102577.75;5020700;28;20254;-64
2022/03/26 07:32:41;;;;;;;36.40;29.53;;;;;;;21.79;38.17;102580.09;5018181;28;20246;-63
2022/03/26 07:35:07;;;;;;;44.67;38.70;;;;;;;21.00;38.13;102590.31;5019444;28;20233;-62
2022/03/26 07:37:32;;;;;;;38.40;34.23;;;;;;;20.55;38.50;102586.88;5020344;28;20171;-64
2022/03/26 07:39:59;;;;;;;42.50;35.43;;;;;;;19.67;39.73;102591.31;5015320;28;20175;-63
2022/03/26 07:42:25;;;;;;;38.00;33.40;;;;;;;20.50;38.99;102582.47;5015789;28;20182;-63
2022/03/26 07:44:50;;;;;;;43.73;35.70;;;;;;;18.89;39.48;102591.97;5000705;28;20443;-62
2022/03/26 07:47:15;;;;;;;42.10;34.73;;;;;;;18.18;41.93;102599.41;5000310;28;20175;-62
2022/03/26 07:49:41;;;;;;;36.67;32.73;;;;;;;19.56;39.39;102594.81;5002191;28;20175;-63
2022/03/26 07:52:07;;;;;;;39.67;34.47;;;;;;;21.29;36.09;102584.81;5020112;28;20164;-63
2022/03/26 07:54:32;;;;;;;38.10;31.70;;;;;;;21.25;35.85;102582.22;5019896;28;20436;-74
2022/03/26 07:56:57;;;;;;;41.10;35.87;;;;;;;20.01;37.88;102599.31;5007387;28;20434;-76
2022/03/26 07:59:22;;;;;;;38.50;34.30;;;;;;;18.84;40.54;102599.81;5024319;28;20236;-77
2022/03/26 08:01:48;;;;;;;36.60;32.10;;;;;;;19.25;39.79;102603.56;5029081;28;20644;-77
2022/03/26 08:04:13;;;;;;;36.20;32.03;;;;;;;18.72;41.29;102599.78;5031730;28;20206;-75
2022/03/26 08:06:38;;;;;;;38.80;34.30;;;;;;;17.71;43.03;102600.75;5015810;28;20174;-77
2022/03/26 08:09:04;;;;;;;38.37;32.50;;;;;;;17.53;44.27;102598.78;5027758;28;20182;-77
2022/03/26 08:11:29;;;;;;;34.30;29.67;;;;;;;17.37;44.16;102600.38;5036347;28;20479;-74
2022/03/26 08:13:54;;;;;;;36.00;31.57;;;;;;;17.08;44.96;102595.66;5020555;28;20594;-74
2022/03/26 08:16:20;;;;;;;36.23;30.83;;;;;;;17.39;44.83;102589.88;5021289;28;20170;-76
2022/03/26 08:18:45;;;;;;;38.23;29.37;;;;;;;16.99;45.56;102598.16;5000530;28;20489;-73
2022/03/26 08:21:11;;;;;;;34.40;27.80;;;;;;;17.29;45.31;102602.03;5001752;28;20210;-75
2022/03/26 08:23:37;;;;;;;39.00;28.17;;;;;;;18.46;43.42;102591.72;5000763;28;20330;-74
2022/03/26 08:28:47;;;;;;;29.80;24.27;;;;;;;18.47;42.86;102594.34;5012856;28;20432;-75
2022/03/26 08:31:13;;;;;;;30.50;26.10;;;;;;;17.27;45.13;102593.25;5019598;28;20853;-75
2022/03/26 08:33:41;;;;;;;31.47;24.10;;;;;;;17.55;45.09;102593.53;5020279;28;20220;-75
2022/03/26 08:36:07;;;;;;;29.93;26.53;;;;;;;17.97;44.59;102593.09;5019575;28;20443;-75
2022/03/26 08:38:33;;;;;;;29.53;24.40;;;;;;;17.96;44.58;102595.72;5016838;28;20516;-74
2022/03/26 08:40:58;;;;;;;29.67;22.27;;;;;;;17.54;45.45;102575.97;5017527;28;20171;-75
2022/03/26 08:43:24;;;;;;;28.20;21.17;;;;;;;17.11;46.87;102587.78;5019405;28;20418;-77
2022/03/26 08:45:49;;;;;;;22.13;19.63;;;;;;;17.29;45.99;102581.84;5019354;28;20465;-76
2022/03/26 08:48:15;;;;;;;22.27;19.40;;;;;;;17.50;46.15;102585.59;5002926;28;20187;-75
2022/03/26 08:50:41;;;;;;;23.70;17.80;;;;;;;17.26;46.51;102594.09;5000510;28;20182;-75
2022/03/26 08:53:06;;;;;;;22.47;17.83;;;;;;;16.47;48.09;102604.47;5005871;28;20400;-75
2022/03/26 08:55:32;;;;;;;21.33;18.77;;;;;;;16.58;48.62;102590.56;5019096;28;20210;-76
2022/03/26 08:57:57;;;;;;;20.43;18.00;;;;;;;17.05;47.12;102597.34;5018854;28;20198;-75
2022/03/26 09:00:23;;;;;;;20.30;17.77;;;;;;;17.04;47.25;102595.63;5019090;28;20269;-75
2022/03/26 09:02:48;;;;;;;21.90;17.27;;;;;;;18.47;44.32;102577.63;5034305;28;20261;-75
2022/03/26 09:05:14;;;;;;;19.90;17.80;;;;;;;17.98;44.99;102588.69;5018995;28;20309;-77
2022/03/26 09:07:40;;;;;;;27.27;18.67;;;;;;;17.78;45.59;102581.47;5022095;28;20167;-78
2022/03/26 09:10:06;;;;;;;19.50;17.40;;;;;;;17.20;47.01;102586.13;5038427;28;20212;-77
2022/03/26 09:12:31;;;;;;;18.90;16.93;;;;;;;18.57;44.19;102573.28;5038870;28;20462;-74
2022/03/26 09:14:56;;;;;;;21.20;18.50;;;;;;;19.15;42.19;102573.56;5038646;28;20158;-75
2022/03/26 09:17:22;;;;;;;19.67;16.33;;;;;;;19.43;41.80;102584.22;5038150;28;20174;-75
2022/03/26 09:19:47;;;;;;;18.83;16.83;;;;;;;18.88;43.37;102573.44;5038362;28;20163;-78
2022/03/26 09:22:12;;;;;;;18.10;15.90;;;;;;;18.77;43.19;102582.19;5038416;28;20162;-78
2022/03/26 09:24:38;;;;;;;18.00;16.10;;;;;;;17.33;46.89;102582.75;5038267;28;20208;-74
2022/03/26 09:27:03;;;;;;;15.70;14.00;;;;;;;17.21;46.40;102587.91;5038151;28;20174;-78
2022/03/26 09:29:28;;;;;;;19.40;12.10;;;;;;;17.56;46.00;102579.47;5038919;28;20551;-78
2022/03/26 09:31:55;;;;;;;14.67;11.43;;;;;;;17.10;46.79;102587.75;5037433;28;20178;-77
2022/03/26 09:34:20;;;;;;;14.23;10.70;;;;;;;16.24;48.34;102596.22;5038005;28;20611;-75
2022/03/26 09:36:45;;;;;;;13.80;11.50;;;;;;;16.25;48.58;102597.97;5037985;28;20401;-76
2022/03/26 09:39:14;;;;;;;14.00;10.23;;;;;;;16.30;48.84;102587.50;5038093;28;20166;-76
2022/03/26 09:41:40;;;;;;;15.40;11.40;;;;;;;16.49;48.72;102589.59;5038037;28;20162;-77
2022/03/26 09:44:06;;;;;;;12.57;11.33;;;;;;;16.50;48.79;102593.97;5038069;28;20368;-75
2022/03/26 09:46:32;;;;;;;13.57;10.90;;;;;;;16.57;48.62;102588.78;5038354;28;20555;-77
2022/03/26 09:48:59;;;;;;;10.53;9.43;;;;;;;17.62;46.04;102571.66;5040652;28;20423;-78
2022/03/26 09:51:24;;;;;;;12.17;10.90;;;;;;;16.63;48.27;102584.50;5042795;28;20451;-75
2022/03/26 09:53:52;;;;;;;16.07;10.53;;;;;;;17.07;47.58;102582.47;5042522;28;20804;-77
2022/03/26 09:56:18;;;;;;;12.97;10.67;;;;;;;18.81;44.38;102588.38;5042674;28;20167;-76
2022/03/26 09:58:44;;;;;;;11.73;10.60;;;;;;;17.66;46.83;102581.34;5042381;28;20380;-77
2022/03/26 10:01:09;;;;;;;15.27;11.30;;;;;;;18.12;45.18;102587.06;5041714;28;20658;-75
2022/03/26 10:03:38;;;;;;;11.83;10.63;;;;;;;17.48;47.08;102582.94;5041964;28;20551;-75
2022/03/26 10:06:04;;;;;;;13.90;11.40;;;;;;;18.23;45.58;102588.91;5042382;28;20230;-76
2022/03/26 10:08:34;;;;;;;12.17;10.37;;;;;;;16.64;49.37;102601.19;5031627;28;20429;-75
2022/03/26 10:11:00;;;;;;;12.57;10.90;;;;;;;16.65;49.50;102609.09;5021935;28;20458;-74
2022/03/26 10:13:43;;;;;;;12.33;11.00;;;;;;;16.76;49.76;102601.34;5022322;28;20548;-74
2022/03/26 10:16:13;;;;;;;12.50;10.33;;;;;;;16.28;50.56;102605.91;5021680;28;20428;-76
2022/03/26 10:18:43;;;;;;;12.47;11.03;;;;;;;16.90;49.59;102601.59;5021859;28;20665;-74
2022/03/26 10:21:13;;;;;;;12.50;10.20;;;;;;;16.77;50.09;102602.25;5021759;28;20396;-73
2022/03/26 10:23:50;;;;;;;12.70;10.83;;;;;;;17.31;48.69;102595.06;5021846;28;20400;-74
2022/03/26 10:26:18;;;;;;;15.43;11.20;;;;;;;17.36;48.38;102595.09;5002240;28;20503;-76
2022/03/26 10:28:49;;;;;;;16.13;11.17;;;;;;;17.57;47.89;102602.34;5002490;28;20829;-78
2022/03/26 10:34:10;;;;;;;14.90;12.10;;;;;;;16.29;51.39;102615.59;5017097;28;20720;-76
2022/03/26 10:36:40;;;;;;;15.07;12.50;;;;;;;15.61;53.19;102613.50;5021814;28;20556;-76
2022/03/26 10:39:07;;;;;;;18.10;12.10;;;;;;;16.16;52.07;102603.97;5021821;28;20380;-75
2022/03/26 10:41:34;;;;;;;18.67;13.83;;;;;;;16.43;51.73;102612.28;5020853;28;20466;-74
2022/03/26 10:44:13;;;;;;;16.03;12.47;;;;;;;16.63;50.84;102612.59;5021579;28;20413;-74
2022/03/26 10:46:52;;;;;;;16.43;13.37;;;;;;;15.69;53.25;102617.16;5021342;28;20479;-75
2022/03/26 10:49:30;;;;;;;15.53;13.07;;;;;;;16.25;52.87;102605.88;5021545;28;20421;-75
2022/03/26 10:51:57;;;;;;;16.97;12.23;;;;;;;16.30;52.53;102606.84;5001697;28;20404;-74
2022/03/26 10:54:31;;;;;;;14.73;12.87;;;;;;;16.75;51.93;102601.31;5017153;28;20799;-69
2022/03/26 10:56:58;;;;;;;17.23;14.00;;;;;;;15.95;53.90;102595.72;5004167;28;20465;-75
2022/03/26 10:59:24;;;;;;;17.90;13.60;;;;;;;16.36;53.11;102613.94;5020758;28;20440;-76
2022/03/26 11:01:49;;;;;;;15.67;13.50;;;;;;;15.81;54.60;102609.50;5020650;28;20414;-77
2022/03/26 11:04:15;;;;;;;15.47;12.60;;;;;;;15.78;55.04;102606.81;5021158;28;20174;-76
2022/03/26 11:06:40;;;;;;;16.20;13.90;;;;;;;16.03;55.26;102607.25;5020706;28;20553;-76
2022/03/26 11:09:06;;;;;;;15.63;13.40;;;;;;;15.64;55.75;102618.81;5019986;28;20177;-76